sensor_id;sensor_type;location;lat;lon;timestamp;pressure;altitude;pressure_sealevel;temperature;humidity
80103;BME280;69865;47.648;19.030;2024-03-17T00:00:04;100692.72;;;10.18;98.62
80103;BME280;69865;47.648;19.030;2024-03-17T00:00:35;100694.16;;;10.22;98.65
80103;BME280;69865;47.648;19.030;2024-03-17T00:01:06;100694.28;;;10.21;97.53
80103;BME280;69865;47.648;19.030;2024-03-17T00:01:37;100687.81;;;10.25;98.24
80103;BME280;69865;47.648;19.030;2024-03-17T00:02:08;100691.16;;;10.27;97.75
80103;BME280;69865;47.648;19.030;2024-03-17T00:02:39;100687.81;;;10.25;98.02
80103;BME280;69865;47.648;19.030;2024-03-17T00:03:10;100686.97;;;10.24;97.33
80103;BME280;69865;47.648;19.030;2024-03-17T00:03:41;100698.44;;;10.23;98.40
80103;BME280;69865;47.648;19.030;2024-03-17T00:04:12;100690.69;;;10.22;98.03
80103;BME280;69865;47.648;19.030;2024-03-17T00:04:43;100696.78;;;10.22;98.00
80103;BME280;69865;47.648;19.030;2024-03-17T00:05:14;100693.31;;;10.22;97.68
80103;BME280;69865;47.648;19.030;2024-03-17T00:05:45;100695.81;;;10.23;97.47
80103;BME280;69865;47.648;19.030;2024-03-17T00:06:16;100688.06;;;10.22;97.34
80103;BME280;69865;47.648;19.030;2024-03-17T00:06:47;100695.13;;;10.21;98.25
80103;BME280;69865;47.648;19.030;2024-03-17T00:07:18;100694.28;;;10.21;97.79
80103;BME280;69865;47.648;19.030;2024-03-17T00:07:49;100691.75;;;10.19;98.20
80103;BME280;69865;47.648;19.030;2024-03-17T00:08:20;100691.06;;;10.17;97.11
80103;BME280;69865;47.648;19.030;2024-03-17T00:08:51;100695.38;;;10.18;97.83
80103;BME280;69865;47.648;19.030;2024-03-17T00:09:22;100695.47;;;10.17;98.43
80103;BME280;69865;47.648;19.030;2024-03-17T00:09:53;100696.44;;;10.16;97.86
80103;BME280;69865;47.648;19.030;2024-03-17T00:10:26;100694.84;;;10.13;99.23
80103;BME280;69865;47.648;19.030;2024-03-17T00:10:57;100697.47;;;10.13;99.10
80103;BME280;69865;47.648;19.030;2024-03-17T00:11:28;100690.69;;;10.11;99.26
80103;BME280;69865;47.648;19.030;2024-03-17T00:11:59;100696.41;;;10.05;98.78
80103;BME280;69865;47.648;19.030;2024-03-17T00:12:30;100697.13;;;10.07;98.73
80103;BME280;69865;47.648;19.030;2024-03-17T00:13:01;100694.50;;;10.07;99.28
80103;BME280;69865;47.648;19.030;2024-03-17T00:13:32;100683.34;;;10.03;98.34
80103;BME280;69865;47.648;19.030;2024-03-17T00:14:03;100698.78;;;10.08;98.55
80103;BME280;69865;47.648;19.030;2024-03-17T00:14:34;100696.16;;;10.08;98.69
80103;BME280;69865;47.648;19.030;2024-03-17T00:15:06;100692.81;;;10.06;97.83
80103;BME280;69865;47.648;19.030;2024-03-17T00:15:37;100693.78;;;10.05;97.81
80103;BME280;69865;47.648;19.030;2024-03-17T00:16:08;100693.06;;;10.03;98.78
80103;BME280;69865;47.648;19.030;2024-03-17T00:16:39;100692.59;;;9.98;98.28
80103;BME280;69865;47.648;19.030;2024-03-17T00:17:11;100689.84;;;9.99;99.37
80103;BME280;69865;47.648;19.030;2024-03-17T00:17:42;100694.28;;;9.99;99.07
80103;BME280;69865;47.648;19.030;2024-03-17T00:18:13;100697.75;;;9.99;98.78
80103;BME280;69865;47.648;19.030;2024-03-17T00:18:44;100693.28;;;10.00;97.87
80103;BME280;69865;47.648;19.030;2024-03-17T00:19:16;100693.53;;;9.97;98.47
80103;BME280;69865;47.648;19.030;2024-03-17T00:19:47;100695.34;;;9.96;98.75
80103;BME280;69865;47.648;19.030;2024-03-17T00:20:18;100697.97;;;9.96;98.88
80103;BME280;69865;47.648;19.030;2024-03-17T00:20:49;100694.63;;;9.94;99.10
80103;BME280;69865;47.648;19.030;2024-03-17T00:21:20;100699.88;;;9.94;98.08
80103;BME280;69865;47.648;19.030;2024-03-17T00:21:51;100694.28;;;9.99;97.63
80103;BME280;69865;47.648;19.030;2024-03-17T00:22:22;100694.28;;;9.99;98.78
80103;BME280;69865;47.648;19.030;2024-03-17T00:22:53;100694.28;;;9.99;97.92
80103;BME280;69865;47.648;19.030;2024-03-17T00:23:24;100690.66;;;10.00;97.46
80103;BME280;69865;47.648;19.030;2024-03-17T00:23:55;100701.19;;;10.00;97.76
80103;BME280;69865;47.648;19.030;2024-03-17T00:24:26;100692.59;;;9.98;98.51
80103;BME280;69865;47.648;19.030;2024-03-17T00:24:57;100696.16;;;9.97;97.79
80103;BME280;69865;47.648;19.030;2024-03-17T00:25:30;100695.13;;;9.99;97.46
80103;BME280;69865;47.648;19.030;2024-03-17T00:26:01;100696.06;;;9.98;98.18
80103;BME280;69865;47.648;19.030;2024-03-17T00:26:32;100695.13;;;9.99;98.26
80103;BME280;69865;47.648;19.030;2024-03-17T00:27:03;100698.09;;;9.95;97.75
80103;BME280;69865;47.648;19.030;2024-03-17T00:27:34;100693.78;;;9.94;97.70
80103;BME280;69865;47.648;19.030;2024-03-17T00:28:05;100693.78;;;9.94;98.28
80103;BME280;69865;47.648;19.030;2024-03-17T00:28:37;100694.75;;;9.93;98.35
80103;BME280;69865;47.648;19.030;2024-03-17T00:29:08;100697.50;;;9.91;98.26
80103;BME280;69865;47.648;19.030;2024-03-17T00:29:39;100694.97;;;9.89;99.29
80103;BME280;69865;47.648;19.030;2024-03-17T00:30:11;100695.47;;;9.95;97.46
80103;BME280;69865;47.648;19.030;2024-03-17T00:30:42;100694.75;;;9.93;97.69
80103;BME280;69865;47.648;19.030;2024-03-17T00:31:13;100694.03;;;9.90;99.10
80103;BME280;69865;47.648;19.030;2024-03-17T00:31:44;100694.75;;;9.93;98.41
80103;BME280;69865;47.648;19.030;2024-03-17T00:32:16;100691.25;;;9.92;98.16
80103;BME280;69865;47.648;19.030;2024-03-17T00:32:47;100690.56;;;9.90;98.56
80103;BME280;69865;47.648;19.030;2024-03-17T00:33:18;100689.63;;;9.91;98.09
80103;BME280;69865;47.648;19.030;2024-03-17T00:33:51;100693.91;;;9.92;98.80
80103;BME280;69865;47.648;19.030;2024-03-17T00:34:23;100692.09;;;9.93;98.67
80103;BME280;69865;47.648;19.030;2024-03-17T00:34:54;100691.16;;;9.94;98.61
80103;BME280;69865;47.648;19.030;2024-03-17T00:35:25;100692.84;;;9.95;97.98
80103;BME280;69865;47.648;19.030;2024-03-17T00:35:59;100693.53;;;9.97;97.37
80103;BME280;69865;47.648;19.030;2024-03-17T00:36:30;100697.75;;;9.99;97.01
80103;BME280;69865;47.648;19.030;2024-03-17T00:37:01;100697.00;;;9.97;98.03
80103;BME280;69865;47.648;19.030;2024-03-17T00:37:32;100689.38;;;9.94;98.14
80103;BME280;69865;47.648;19.030;2024-03-17T00:38:03;100688.41;;;9.95;98.23
80103;BME280;69865;47.648;19.030;2024-03-17T00:38:34;100689.38;;;9.94;97.54
80103;BME280;69865;47.648;19.030;2024-03-17T00:39:05;100693.78;;;9.94;98.61
80103;BME280;69865;47.648;19.030;2024-03-17T00:39:36;100697.25;;;9.94;97.63
80103;BME280;69865;47.648;19.030;2024-03-17T00:40:08;100690.31;;;9.93;97.59
80103;BME280;69865;47.648;19.030;2024-03-17T00:40:41;100690.22;;;9.95;97.65
80103;BME280;69865;47.648;19.030;2024-03-17T00:41:12;100686.16;;;9.90;98.94
80103;BME280;69865;47.648;19.030;2024-03-17T00:41:44;100692.34;;;9.89;97.81
80103;BME280;69865;47.648;19.030;2024-03-17T00:42:15;100687.09;;;9.89;98.29
80103;BME280;69865;47.648;19.030;2024-03-17T00:42:47;100693.06;;;9.91;98.83
80103;BME280;69865;47.648;19.030;2024-03-17T00:43:18;100692.94;;;9.93;98.25
80103;BME280;69865;47.648;19.030;2024-03-17T00:43:49;100685.78;;;9.95;97.77
80103;BME280;69865;47.648;19.030;2024-03-17T00:44:20;100691.06;;;9.95;97.42
80103;BME280;69865;47.648;19.030;2024-03-17T00:44:51;100691.25;;;10.03;97.35
80103;BME280;69865;47.648;19.030;2024-03-17T00:45:22;100689.34;;;10.05;97.33
80103;BME280;69865;47.648;19.030;2024-03-17T00:45:53;100693.06;;;10.03;97.86
80103;BME280;69865;47.648;19.030;2024-03-17T00:46:24;100686.97;;;10.02;97.69
80103;BME280;69865;47.648;19.030;2024-03-17T00:46:55;100685.19;;;10.03;97.79
80103;BME280;69865;47.648;19.030;2024-03-17T00:47:26;100686.63;;;10.07;97.54
80103;BME280;69865;47.648;19.030;2024-03-17T00:47:58;100690.06;;;10.07;97.48
80103;BME280;69865;47.648;19.030;2024-03-17T00:48:29;100686.63;;;10.07;96.88
80103;BME280;69865;47.648;19.030;2024-03-17T00:49:00;100688.50;;;10.05;96.79
80103;BME280;69865;47.648;19.030;2024-03-17T00:49:31;100684.78;;;10.07;96.45
80103;BME280;69865;47.648;19.030;2024-03-17T00:50:02;100689.94;;;10.09;97.54
80103;BME280;69865;47.648;19.030;2024-03-17T00:50:34;100686.63;;;10.07;96.81
80103;BME280;69865;47.648;19.030;2024-03-17T00:51:05;100680.75;;;10.14;96.80
80103;BME280;69865;47.648;19.030;2024-03-17T00:51:36;100682.44;;;10.15;96.78
80103;BME280;69865;47.648;19.030;2024-03-17T00:52:07;100682.53;;;10.14;96.38
80103;BME280;69865;47.648;19.030;2024-03-17T00:52:38;100674.16;;;10.09;96.77
80103;BME280;69865;47.648;19.030;2024-03-17T00:53:10;100679.06;;;10.13;95.95
80103;BME280;69865;47.648;19.030;2024-03-17T00:53:41;100682.06;;;10.20;96.11
80103;BME280;69865;47.648;19.030;2024-03-17T00:54:12;100688.41;;;10.17;96.89
80103;BME280;69865;47.648;19.030;2024-03-17T00:54:46;100686.75;;;10.16;96.76
80103;BME280;69865;47.648;19.030;2024-03-17T00:55:17;100684.31;;;10.13;97.18
80103;BME280;69865;47.648;19.030;2024-03-17T00:55:53;100671.69;;;10.18;96.66
80103;BME280;69865;47.648;19.030;2024-03-17T00:56:25;100682.19;;;10.29;95.83
80103;BME280;69865;47.648;19.030;2024-03-17T00:56:56;100673.56;;;10.27;95.50
80103;BME280;69865;47.648;19.030;2024-03-17T00:57:27;100686.59;;;10.29;95.78
80103;BME280;69865;47.648;19.030;2024-03-17T00:57:58;100688.16;;;10.31;94.59
80103;BME280;69865;47.648;19.030;2024-03-17T00:58:29;100668.53;;;10.24;95.23
80103;BME280;69865;47.648;19.030;2024-03-17T00:59:00;100677.03;;;10.28;96.06
80103;BME280;69865;47.648;19.030;2024-03-17T00:59:31;100684.81;;;10.29;95.45
80103;BME280;69865;47.648;19.030;2024-03-17T01:00:03;100681.22;;;10.30;95.39
80103;BME280;69865;47.648;19.030;2024-03-17T01:00:34;100687.44;;;10.29;95.99
80103;BME280;69865;47.648;19.030;2024-03-17T01:01:05;100683.88;;;10.30;94.48
80103;BME280;69865;47.648;19.030;2024-03-17T01:01:36;100683.50;;;10.35;94.56
80103;BME280;69865;47.648;19.030;2024-03-17T01:02:07;100685.28;;;10.34;94.50
80103;BME280;69865;47.648;19.030;2024-03-17T01:02:38;100689.81;;;10.32;94.77
80103;BME280;69865;47.648;19.030;2024-03-17T01:03:09;100679.78;;;10.38;93.79
80103;BME280;69865;47.648;19.030;2024-03-17T01:03:40;100698.31;;;10.36;95.01
80103;BME280;69865;47.648;19.030;2024-03-17T01:04:11;100681.69;;;10.35;94.85
80103;BME280;69865;47.648;19.030;2024-03-17T01:04:43;100686.56;;;10.40;94.22
80103;BME280;69865;47.648;19.030;2024-03-17T01:05:14;100686.81;;;10.37;94.78
80103;BME280;69865;47.648;19.030;2024-03-17T01:05:45;100685.28;;;10.34;93.83
80103;BME280;69865;47.648;19.030;2024-03-17T01:06:16;100686.25;;;10.33;94.60
80103;BME280;69865;47.648;19.030;2024-03-17T01:06:47;100687.19;;;10.32;94.59
80103;BME280;69865;47.648;19.030;2024-03-17T01:07:18;100687.34;;;10.31;94.91
80103;BME280;69865;47.648;19.030;2024-03-17T01:07:49;100685.28;;;10.34;94.59
80103;BME280;69865;47.648;19.030;2024-03-17T01:08:21;100676.28;;;10.37;94.49
80103;BME280;69865;47.648;19.030;2024-03-17T01:08:52;100681.31;;;10.40;93.82
80103;BME280;69865;47.648;19.030;2024-03-17T01:09:23;100678.09;;;10.36;93.99
80103;BME280;69865;47.648;19.030;2024-03-17T01:09:54;100676.28;;;10.37;93.67
80103;BME280;69865;47.648;19.030;2024-03-17T01:10:25;100678.09;;;10.36;93.87
80103;BME280;69865;47.648;19.030;2024-03-17T01:10:58;100677.50;;;10.33;94.83
80103;BME280;69865;47.648;19.030;2024-03-17T01:11:29;100681.94;;;10.32;94.18
80103;BME280;69865;47.648;19.030;2024-03-17T01:12:00;100671.63;;;10.41;94.10
80103;BME280;69865;47.648;19.030;2024-03-17T01:12:34;100673.31;;;10.42;93.99
80103;BME280;69865;47.648;19.030;2024-03-17T01:13:06;100676.03;;;10.40;94.13
80103;BME280;69865;47.648;19.030;2024-03-17T01:13:37;100680.13;;;10.33;94.19
80103;BME280;69865;47.648;19.030;2024-03-17T01:14:08;100682.88;;;10.31;94.71
80103;BME280;69865;47.648;19.030;2024-03-17T01:14:40;100672.25;;;10.33;94.11
80103;BME280;69865;47.648;19.030;2024-03-17T01:15:11;100675.72;;;10.33;93.72
80103;BME280;69865;47.648;19.030;2024-03-17T01:15:42;100674.03;;;10.32;94.30
80103;BME280;69865;47.648;19.030;2024-03-17T01:16:14;100674.19;;;10.31;94.87
80103;BME280;69865;47.648;19.030;2024-03-17T01:16:45;100667.69;;;10.35;94.02
80103;BME280;69865;47.648;19.030;2024-03-17T01:17:16;100667.69;;;10.35;93.60
80103;BME280;69865;47.648;19.030;2024-03-17T01:17:47;100671.88;;;10.38;93.50
80103;BME280;69865;47.648;19.030;2024-03-17T01:18:18;100669.50;;;10.34;94.44
80103;BME280;69865;47.648;19.030;2024-03-17T01:18:49;100668.75;;;10.32;93.86
80103;BME280;69865;47.648;19.030;2024-03-17T01:19:20;100671.66;;;10.29;94.92
80103;BME280;69865;47.648;19.030;2024-03-17T01:19:51;100659.44;;;10.28;94.78
80103;BME280;69865;47.648;19.030;2024-03-17T01:20:22;100674.97;;;10.31;94.77
80103;BME280;69865;47.648;19.030;2024-03-17T01:20:53;100675.22;;;10.28;95.11
80103;BME280;69865;47.648;19.030;2024-03-17T01:21:24;100678.47;;;10.32;93.81
80103;BME280;69865;47.648;19.030;2024-03-17T01:21:55;100687.44;;;10.29;94.65
80103;BME280;69865;47.648;19.030;2024-03-17T01:22:26;100674.97;;;10.31;94.01
80103;BME280;69865;47.648;19.030;2024-03-17T01:22:57;100685.66;;;10.30;94.10
80103;BME280;69865;47.648;19.030;2024-03-17T01:23:28;100679.44;;;10.31;94.13
80103;BME280;69865;47.648;19.030;2024-03-17T01:24:00;100681.44;;;10.27;94.22
80103;BME280;69865;47.648;19.030;2024-03-17T01:24:31;100679.44;;;10.31;94.28
80103;BME280;69865;47.648;19.030;2024-03-17T01:25:02;100677.75;;;10.30;93.62
80103;BME280;69865;47.648;19.030;2024-03-17T01:25:34;100680.13;;;10.33;94.14
80103;BME280;69865;47.648;19.030;2024-03-17T01:26:06;100676.56;;;10.34;93.40
80103;BME280;69865;47.648;19.030;2024-03-17T01:26:37;100674.75;;;10.34;93.93
80103;BME280;69865;47.648;19.030;2024-03-17T01:27:08;100676.28;;;10.37;93.08
80103;BME280;69865;47.648;19.030;2024-03-17T01:27:39;100657.28;;;10.33;93.85
80103;BME280;69865;47.648;19.030;2024-03-17T01:28:10;100681.94;;;10.32;93.34
80103;BME280;69865;47.648;19.030;2024-03-17T01:28:42;100680.97;;;10.33;93.83
80103;BME280;69865;47.648;19.030;2024-03-17T01:29:13;100685.28;;;10.34;93.20
80103;BME280;69865;47.648;19.030;2024-03-17T01:29:44;100680.13;;;10.33;93.67
80103;BME280;69865;47.648;19.030;2024-03-17T01:30:15;100680.03;;;10.34;93.48
80103;BME280;69865;47.648;19.030;2024-03-17T01:30:46;100682.50;;;10.36;93.48
80103;BME280;69865;47.648;19.030;2024-03-17T01:31:17;100679.19;;;10.34;92.68
80103;BME280;69865;47.648;19.030;2024-03-17T01:31:48;100681.09;;;10.32;93.32
80103;BME280;69865;47.648;19.030;2024-03-17T01:32:19;100678.72;;;10.29;93.21
80103;BME280;69865;47.648;19.030;2024-03-17T01:32:51;100678.00;;;10.27;94.44
80103;BME280;69865;47.648;19.030;2024-03-17T01:33:22;100688.53;;;10.27;93.59
80103;BME280;69865;47.648;19.030;2024-03-17T01:33:53;100685.06;;;10.26;94.17
80103;BME280;69865;47.648;19.030;2024-03-17T01:34:24;100678.97;;;10.26;94.21
80103;BME280;69865;47.648;19.030;2024-03-17T01:34:55;100687.69;;;10.26;94.35
80103;BME280;69865;47.648;19.030;2024-03-17T01:35:26;100690.56;;;10.23;94.35
80103;BME280;69865;47.648;19.030;2024-03-17T01:35:58;100681.69;;;10.24;94.30
80103;BME280;69865;47.648;19.030;2024-03-17T01:36:29;100679.22;;;10.23;94.14
80103;BME280;69865;47.648;19.030;2024-03-17T01:37:00;100685.19;;;10.25;93.77
80103;BME280;69865;47.648;19.030;2024-03-17T01:37:31;100686.00;;;10.25;93.67
80103;BME280;69865;47.648;19.030;2024-03-17T01:38:02;100678.59;;;10.19;93.98
80103;BME280;69865;47.648;19.030;2024-03-17T01:38:33;100687.47;;;10.18;94.70
80103;BME280;69865;47.648;19.030;2024-03-17T01:39:04;100684.00;;;10.18;94.44
80103;BME280;69865;47.648;19.030;2024-03-17T01:39:35;100683.25;;;10.16;95.08
80103;BME280;69865;47.648;19.030;2024-03-17T01:40:07;100677.78;;;10.19;93.87
80103;BME280;69865;47.648;19.030;2024-03-17T01:40:38;100684.84;;;10.18;94.96
80103;BME280;69865;47.648;19.030;2024-03-17T01:41:11;100682.06;;;10.20;94.43
80103;BME280;69865;47.648;19.030;2024-03-17T01:41:42;100684.09;;;10.16;93.82
80103;BME280;69865;47.648;19.030;2024-03-17T01:42:13;100682.19;;;10.18;93.80
80103;BME280;69865;47.648;19.030;2024-03-17T01:42:44;100677.78;;;10.19;94.39
80103;BME280;69865;47.648;19.030;2024-03-17T01:43:15;100681.47;;;10.16;94.10
80103;BME280;69865;47.648;19.030;2024-03-17T01:43:46;100680.97;;;10.11;95.14
80103;BME280;69865;47.648;19.030;2024-03-17T01:44:23;100678.47;;;10.10;94.98
80103;BME280;69865;47.648;19.030;2024-03-17T01:44:54;100680.00;;;10.12;94.37
80103;BME280;69865;47.648;19.030;2024-03-17T01:45:28;100681.81;;;10.12;94.68
80103;BME280;69865;47.648;19.030;2024-03-17T01:46:00;100680.84;;;10.13;94.54
80103;BME280;69865;47.648;19.030;2024-03-17T01:46:31;100677.38;;;10.12;94.04
80103;BME280;69865;47.648;19.030;2024-03-17T01:47:03;100678.34;;;10.11;95.20
80103;BME280;69865;47.648;19.030;2024-03-17T01:47:34;100674.06;;;10.10;94.18
80103;BME280;69865;47.648;19.030;2024-03-17T01:48:11;100675.69;;;10.11;94.35
80103;BME280;69865;47.648;19.030;2024-03-17T01:48:43;100673.31;;;10.08;95.22
80103;BME280;69865;47.648;19.030;2024-03-17T01:49:15;100679.41;;;10.09;94.22
80103;BME280;69865;47.648;19.030;2024-03-17T01:49:47;100670.44;;;10.11;94.67
80103;BME280;69865;47.648;19.030;2024-03-17T01:50:20;100685.53;;;10.09;94.97
80103;BME280;69865;47.648;19.030;2024-03-17T01:50:55;100682.06;;;10.09;94.96
80103;BME280;69865;47.648;19.030;2024-03-17T01:51:26;100676.09;;;10.07;94.18
80103;BME280;69865;47.648;19.030;2024-03-17T01:51:57;100682.06;;;10.09;94.27
80103;BME280;69865;47.648;19.030;2024-03-17T01:52:28;100678.72;;;10.07;95.43
80103;BME280;69865;47.648;19.030;2024-03-17T01:53:03;100683.00;;;10.08;94.34
80103;BME280;69865;47.648;19.030;2024-03-17T01:53:35;100687.44;;;10.07;94.61
80103;BME280;69865;47.648;19.030;2024-03-17T01:54:07;100684.69;;;10.09;95.26
80103;BME280;69865;47.648;19.030;2024-03-17T01:54:39;100693.78;;;10.05;94.81
80103;BME280;69865;47.648;19.030;2024-03-17T01:55:10;100686.97;;;10.02;95.03
80103;BME280;69865;47.648;19.030;2024-03-17T01:55:43;100694.13;;;10.00;95.98
80103;BME280;69865;47.648;19.030;2024-03-17T01:56:16;100686.50;;;9.97;95.51
80103;BME280;69865;47.648;19.030;2024-03-17T01:56:48;100691.75;;;9.97;95.79
80103;BME280;69865;47.648;19.030;2024-03-17T01:57:20;100690.81;;;9.98;94.69
80103;BME280;69865;47.648;19.030;2024-03-17T01:57:51;100694.13;;;10.00;94.65
80103;BME280;69865;47.648;19.030;2024-03-17T01:58:25;100699.41;;;10.00;95.10
80103;BME280;69865;47.648;19.030;2024-03-17T01:58:57;100695.13;;;9.99;95.43
80103;BME280;69865;47.648;19.030;2024-03-17T01:59:29;100697.00;;;9.97;95.26
80103;BME280;69865;47.648;19.030;2024-03-17T02:00:00;100701.44;;;9.97;95.87
80103;BME280;69865;47.648;19.030;2024-03-17T02:00:31;100700.72;;;9.95;95.32
80103;BME280;69865;47.648;19.030;2024-03-17T02:01:03;100692.84;;;9.95;94.92
80103;BME280;69865;47.648;19.030;2024-03-17T02:01:34;100692.59;;;9.98;95.94
80103;BME280;69865;47.648;19.030;2024-03-17T02:02:05;100692.84;;;9.95;96.18
80103;BME280;69865;47.648;19.030;2024-03-17T02:02:36;100697.97;;;9.96;94.91
80103;BME280;69865;47.648;19.030;2024-03-17T02:03:08;100698.09;;;9.95;95.85
80103;BME280;69865;47.648;19.030;2024-03-17T02:03:40;100697.38;;;9.93;95.96
80103;BME280;69865;47.648;19.030;2024-03-17T02:04:11;100694.63;;;9.94;95.55
80103;BME280;69865;47.648;19.030;2024-03-17T02:04:42;100709.47;;;9.95;95.46
80103;BME280;69865;47.648;19.030;2024-03-17T02:05:13;100703.56;;;9.91;96.21
80103;BME280;69865;47.648;19.030;2024-03-17T02:05:45;100710.78;;;9.89;96.85
80103;BME280;69865;47.648;19.030;2024-03-17T02:06:16;100715.09;;;9.90;95.24
80103;BME280;69865;47.648;19.030;2024-03-17T02:06:47;100706.34;;;9.90;95.45
80103;BME280;69865;47.648;19.030;2024-03-17T02:07:18;100703.81;;;9.88;95.77
80103;BME280;69865;47.648;19.030;2024-03-17T02:07:49;100710.88;;;9.88;95.73
80103;BME280;69865;47.648;19.030;2024-03-17T02:08:20;100709.34;;;9.85;96.68
80103;BME280;69865;47.648;19.030;2024-03-17T02:08:53;100711.84;;;9.87;96.79
80103;BME280;69865;47.648;19.030;2024-03-17T02:09:24;100702.28;;;9.86;95.99
80103;BME280;69865;47.648;19.030;2024-03-17T02:09:56;100708.50;;;9.85;96.24
80103;BME280;69865;47.648;19.030;2024-03-17T02:10:28;100701.53;;;9.84;96.97
80103;BME280;69865;47.648;19.030;2024-03-17T02:10:59;100706.09;;;9.82;96.95
80103;BME280;69865;47.648;19.030;2024-03-17T02:11:32;100708.59;;;9.83;96.65
80103;BME280;69865;47.648;19.030;2024-03-17T02:12:04;100718.41;;;9.81;96.63
80103;BME280;69865;47.648;19.030;2024-03-17T02:12:35;100717.56;;;9.81;95.95
80103;BME280;69865;47.648;19.030;2024-03-17T02:13:07;100714.09;;;9.80;96.28
80103;BME280;69865;47.648;19.030;2024-03-17T02:13:38;100714.94;;;9.81;95.95
80103;BME280;69865;47.648;19.030;2024-03-17T02:14:09;100712.56;;;9.78;96.04
80103;BME280;69865;47.648;19.030;2024-03-17T02:14:41;100724.63;;;9.80;96.09
80103;BME280;69865;47.648;19.030;2024-03-17T02:15:12;100725.56;;;9.79;96.75
80103;BME280;69865;47.648;19.030;2024-03-17T02:15:43;100721.16;;;9.80;96.28
80103;BME280;69865;47.648;19.030;2024-03-17T02:16:14;100713.50;;;9.77;96.19
80103;BME280;69865;47.648;19.030;2024-03-17T02:16:45;100717.94;;;9.76;96.58
80103;BME280;69865;47.648;19.030;2024-03-17T02:17:16;100718.16;;;9.73;97.05
80103;BME280;69865;47.648;19.030;2024-03-17T02:17:47;100716.25;;;9.75;96.86
80103;BME280;69865;47.648;19.030;2024-03-17T02:18:18;100716.97;;;9.77;97.16
80103;BME280;69865;47.648;19.030;2024-03-17T02:18:53;100720.56;;;9.76;96.83
80103;BME280;69865;47.648;19.030;2024-03-17T02:19:24;100719.72;;;9.76;97.75
80103;BME280;69865;47.648;19.030;2024-03-17T02:19:55;100726.75;;;9.75;97.08
80103;BME280;69865;47.648;19.030;2024-03-17T02:20:26;100722.13;;;9.79;96.56
80103;BME280;69865;47.648;19.030;2024-03-17T02:20:57;100727.16;;;9.82;97.37
80103;BME280;69865;47.648;19.030;2024-03-17T02:21:28;100733.25;;;9.82;96.78
80103;BME280;69865;47.648;19.030;2024-03-17T02:21:59;100732.66;;;9.90;96.08
80103;BME280;69865;47.648;19.030;2024-03-17T02:22:32;100729.19;;;9.89;96.56
80103;BME280;69865;47.648;19.030;2024-03-17T02:23:03;100727.50;;;10.00;96.31
80103;BME280;69865;47.648;19.030;2024-03-17T02:23:34;100722.84;;;10.03;95.35
80103;BME280;69865;47.648;19.030;2024-03-17T02:24:08;100723.47;;;10.07;96.20
80103;BME280;69865;47.648;19.030;2024-03-17T02:24:39;100721.19;;;10.02;96.22
80103;BME280;69865;47.648;19.030;2024-03-17T02:25:10;100730.97;;;10.00;96.87
80103;BME280;69865;47.648;19.030;2024-03-17T02:25:41;100733.50;;;10.02;96.12
80103;BME280;69865;47.648;19.030;2024-03-17T02:26:12;100734.19;;;10.04;96.08
80103;BME280;69865;47.648;19.030;2024-03-17T02:26:43;100729.06;;;10.02;96.08
80103;BME280;69865;47.648;19.030;2024-03-17T02:27:14;100738.16;;;10.09;96.12
80103;BME280;69865;47.648;19.030;2024-03-17T02:27:45;100733.72;;;10.10;95.97
80103;BME280;69865;47.648;19.030;2024-03-17T02:28:16;100730.38;;;10.08;96.44
80103;BME280;69865;47.648;19.030;2024-03-17T02:28:47;100727.03;;;10.06;95.47
80103;BME280;69865;47.648;19.030;2024-03-17T02:29:18;100723.47;;;10.07;95.46
80103;BME280;69865;47.648;19.030;2024-03-17T02:29:49;100730.16;;;10.11;95.06
80103;BME280;69865;47.648;19.030;2024-03-17T02:30:20;100727.75;;;10.08;95.72
80103;BME280;69865;47.648;19.030;2024-03-17T02:30:51;100727.63;;;10.09;94.87
80103;BME280;69865;47.648;19.030;2024-03-17T02:31:22;100737.81;;;10.14;95.01
80103;BME280;69865;47.648;19.030;2024-03-17T02:31:53;100738.66;;;10.14;95.68
80103;BME280;69865;47.648;19.030;2024-03-17T02:32:24;100733.28;;;10.16;95.29
80103;BME280;69865;47.648;19.030;2024-03-17T02:32:55;100739.38;;;10.16;95.61
80103;BME280;69865;47.648;19.030;2024-03-17T02:33:27;100745.81;;;10.12;95.59
80103;BME280;69865;47.648;19.030;2024-03-17T02:33:58;100743.66;;;10.06;95.37
80103;BME280;69865;47.648;19.030;2024-03-17T02:34:29;100735.88;;;9.94;96.10
80103;BME280;69865;47.648;19.030;2024-03-17T02:35:00;100747.94;;;9.96;96.44
80103;BME280;69865;47.648;19.030;2024-03-17T02:35:31;100739.72;;;10.01;96.00
80103;BME280;69865;47.648;19.030;2024-03-17T02:36:02;100746.28;;;10.06;94.93
80103;BME280;69865;47.648;19.030;2024-03-17T02:36:33;100746.41;;;10.05;95.83
80103;BME280;69865;47.648;19.030;2024-03-17T02:37:04;100748.34;;;10.03;95.87
80103;BME280;69865;47.648;19.030;2024-03-17T02:37:37;100744.72;;;10.04;95.62
80103;BME280;69865;47.648;19.030;2024-03-17T02:38:09;100740.44;;;10.03;95.52
80103;BME280;69865;47.648;19.030;2024-03-17T02:38:43;100749.03;;;10.05;95.41
80103;BME280;69865;47.648;19.030;2024-03-17T02:39:14;100748.94;;;10.06;95.39
80103;BME280;69865;47.648;19.030;2024-03-17T02:39:45;100745.47;;;10.06;94.99
80103;BME280;69865;47.648;19.030;2024-03-17T02:40:17;100742.69;;;10.07;95.45
80103;BME280;69865;47.648;19.030;2024-03-17T02:40:48;100751.22;;;10.11;94.73
80103;BME280;69865;47.648;19.030;2024-03-17T02:41:19;100754.78;;;10.10;95.21
80103;BME280;69865;47.648;19.030;2024-03-17T02:41:50;100757.53;;;10.08;94.90
80103;BME280;69865;47.648;19.030;2024-03-17T02:42:21;100750.81;;;10.04;95.46